Stow Creek Twp, New Jersey
Current Conditions -  °F | °C
As of 3:54 PM on Friday 31 Oct 2014 (Local Time) from KMIV Reporting Station
Overcast Overcast  
Wind Chill: 53°   Ceiling: 3000
Heat Index: 53°   Visibility: 10mi
Dew Point: 39°   Wind: 12mph
Humidity: 59%   Direction: 30°NNE
Pressure: 29.86"   Gusts: NA
Location:  39.4433°N, 75.2554°W
Report Text: KMIV 311954Z AUTO 03010KT 10SM BKN030 BKN050 OVC060 12/04 A2986 RMK AO2 SLP110 T01170039
Loading
Personal Weather Stations






























Interactive Weather Map
Tropical Storm Tracking
New forecast layout! Learn more

10-Day Weather Forecast

Advertisements
Track Severe Weather on mobile